KRMG/RMG METAR and TAF weather

Enter ICAO airport designator
Station Type Date Time Source
KRMG METAR 2022/01/18 06:53 UTC NOAA

KRMG 180653Z AUTO 00000KT 10SM BKN032 01/M03 A3011 RMK AO2 SLP198 T00061033


Station Type Date Time Source
KRMG Decoded METAR 2022/01/18 06:53 UTC NOAA

ROME R. B. RUSSELL AIRPORT, GA, United States (KRMG) 34-21N 085-10W 193M
Jan 18, 2022 - 01:53 AM EST / 2022.01.18 0653 UTC
Wind: Calm:0
Visibility: 10 mile(s):0
Sky conditions: mostly cloudy
Temperature: 33.1 F (0.6 C)
Dew Point: 26.1 F (-3.3 C)
Relative Humidity: 75%
Pressure (altimeter): 30.11 in. Hg (1019 hPa)
ob: KRMG 180653Z AUTO 00000KT 10SM BKN032 01/M03 A3011 RMK AO2 SLP198 T00061033
cycle: 7

Station Type Date Time Source
KRMG TAF UTC NOAA

Error!

Example: see airport list